Time;durP1;ratioP1;P1;durP2;ratioP2;P2;SDS_P1;SDS_P2;PMS_P1;PMS_P2;Temp;Humidity;BMP_temperature;BMP_pressure;BME280_temperature;BME280_humidity;BME280_pressure;Samples;Min_cycle;Max_cycle;Signal;HPM_P1;HPM_P2
2023/06/07 00:01:54;;;;;;;5.00;4.60;;;17.20;99.90;;;;;;6120320;23;20437;-81
2023/06/07 00:04:21;;;;;;;4.13;3.83;;;17.20;99.90;;;;;;6119844;23;20875;-81
2023/06/07 00:06:48;;;;;;;4.67;4.37;;;17.20;99.90;;;;;;6120980;23;21008;-81
2023/06/07 00:09:17;;;;;;;4.57;4.27;;;17.20;99.90;;;;;;6120784;23;20421;-81
2023/06/07 00:11:44;;;;;;;4.50;4.20;;;17.30;99.90;;;;;;6130203;23;20429;-81
2023/06/07 00:14:10;;;;;;;4.93;4.53;;;17.10;99.90;;;;;;6146634;23;20471;-81
2023/06/07 00:16:37;;;;;;;4.40;4.10;;;17.20;99.90;;;;;;6146242;23;20469;-81
2023/06/07 00:19:06;;;;;;;4.50;4.20;;;17.00;99.90;;;;;;6134960;23;20848;-81
2023/06/07 00:21:33;;;;;;;5.40;4.80;;;17.00;99.90;;;;;;6149046;23;20440;-81
2023/06/07 00:24:00;;;;;;;5.53;4.63;;;17.00;99.90;;;;;;6149802;23;20819;-81
2023/06/07 00:26:28;;;;;;;4.83;4.53;;;17.00;99.90;;;;;;6138665;23;20460;-81
2023/06/07 00:28:55;;;;;;;4.90;4.50;;;16.90;99.90;;;;;;6138395;23;20440;-81
2023/06/07 00:31:22;;;;;;;5.27;4.77;;;16.90;99.90;;;;;;6148745;23;20524;-81
2023/06/07 00:33:49;;;;;;;6.10;4.93;;;16.80;99.90;;;;;;6149920;23;20539;-81
2023/06/07 00:36:16;;;;;;;5.20;4.70;;;16.80;99.90;;;;;;6136431;23;20460;-81
2023/06/07 00:38:43;;;;;;;5.10;4.80;;;16.70;99.90;;;;;;6135867;23;20519;-81
2023/06/07 00:41:10;;;;;;;4.90;4.57;;;16.70;99.90;;;;;;6150115;23;20508;-81
2023/06/07 00:43:39;;;;;;;4.60;4.20;;;16.70;99.90;;;;;;6149516;23;20845;-81
2023/06/07 00:46:08;;;;;;;4.97;4.57;;;16.60;99.90;;;;;;6148234;23;20511;-81
2023/06/07 00:48:35;;;;;;;5.30;4.90;;;16.60;99.90;;;;;;6147896;23;20440;-81
2023/06/07 00:51:02;;;;;;;5.33;4.93;;;16.50;99.90;;;;;;6120480;23;20429;-81
2023/06/07 00:53:30;;;;;;;5.43;5.03;;;16.50;99.90;;;;;;6131487;23;20983;-80
2023/06/07 00:55:58;;;;;;;4.60;4.20;;;16.50;99.90;;;;;;6146949;23;20570;-77
2023/06/07 00:58:26;;;;;;;5.40;5.00;;;16.50;99.90;;;;;;6148852;23;20512;-78
2023/06/07 01:00:57;;;;;;;5.00;4.70;;;16.40;99.90;;;;;;6148807;23;20906;-79
2023/06/07 01:03:24;;;;;;;5.40;4.90;;;16.40;99.90;;;;;;6144153;23;20506;-78
2023/06/07 01:05:51;;;;;;;5.07;4.77;;;16.40;99.90;;;;;;6145880;23;20516;-78
2023/06/07 01:08:20;;;;;;;4.90;4.60;;;16.40;99.90;;;;;;6140888;23;20448;-79
2023/06/07 01:10:47;;;;;;;5.07;4.67;;;16.30;99.90;;;;;;6134157;23;20438;-81
2023/06/07 01:13:16;;;;;;;4.90;4.60;;;16.30;99.90;;;;;;6128955;23;20832;-80
2023/06/07 01:15:44;;;;;;;5.37;4.97;;;16.30;99.90;;;;;;6146396;23;20437;-80
2023/06/07 01:18:13;;;;;;;5.60;5.20;;;16.50;99.90;;;;;;6132700;23;20475;-79
2023/06/07 01:20:44;;;;;;;5.20;4.80;;;16.20;99.90;;;;;;6137480;23;20432;-79
2023/06/07 01:23:12;;;;;;;5.43;5.03;;;16.20;99.90;;;;;;6146449;23;20547;-79
2023/06/07 01:25:41;;;;;;;5.27;4.80;;;16.20;99.90;;;;;;6149277;23;20496;-80
2023/06/07 01:28:08;;;;;;;5.67;5.27;;;16.10;99.90;;;;;;6148401;23;20848;-79
2023/06/07 01:30:36;;;;;;;5.40;4.90;;;16.10;99.90;;;;;;6148815;23;20504;-79
2023/06/07 01:33:05;;;;;;;5.83;5.37;;;16.00;99.90;;;;;;6147713;23;21059;-79
2023/06/07 01:35:34;;;;;;;5.73;5.33;;;15.90;99.90;;;;;;6144775;23;20440;-79
2023/06/07 01:38:02;;;;;;;5.07;4.77;;;15.80;99.90;;;;;;6138757;23;20496;-79
2023/06/07 01:40:32;;;;;;;5.50;5.10;;;15.80;99.90;;;;;;6140742;23;20517;-79
2023/06/07 01:43:02;;;;;;;5.43;5.03;;;15.80;99.90;;;;;;6123927;23;20479;-78
2023/06/07 01:45:29;;;;;;;5.30;4.90;;;15.70;99.90;;;;;;6120575;23;20418;-79
2023/06/07 01:47:56;;;;;;;5.07;4.77;;;15.70;99.90;;;;;;6141358;23;20784;-78
2023/06/07 01:50:23;;;;;;;5.60;5.20;;;15.70;99.90;;;;;;6150306;23;20420;-78
2023/06/07 01:52:51;;;;;;;5.00;4.70;;;15.70;99.90;;;;;;6149987;23;20436;-78
2023/06/07 01:55:19;;;;;;;5.43;5.03;;;15.60;99.90;;;;;;6149762;23;20431;-78
2023/06/07 01:57:57;;;;;;;5.00;4.60;;;15.70;99.90;;;;;;6146282;23;20457;-78
2023/06/07 02:00:30;;;;;;;5.20;4.90;;;15.60;99.90;;;;;;6139317;23;20429;-78
2023/06/07 02:03:02;;;;;;;5.83;5.43;;;15.60;99.90;;;;;;6121305;23;20540;-78
2023/06/07 02:05:34;;;;;;;4.77;4.37;;;15.60;99.90;;;;;;6119227;23;20467;-78
2023/06/07 02:08:08;;;;;;;5.63;5.20;;;15.50;99.90;;;;;;6120840;23;20512;-78
2023/06/07 02:10:38;;;;;;;5.33;4.93;;;15.60;99.90;;;;;;6124745;23;20745;-78
2023/06/07 02:13:06;;;;;;;5.13;4.83;;;15.50;99.90;;;;;;6149627;23;20443;-78
2023/06/07 02:15:35;;;;;;;5.80;5.40;;;15.50;99.90;;;;;;6146937;23;21026;-78
2023/06/07 02:18:02;;;;;;;5.80;5.20;;;15.50;99.90;;;;;;6137974;23;20504;-78
2023/06/07 02:20:30;;;;;;;5.37;5.07;;;15.50;99.90;;;;;;6125110;23;20443;-78
2023/06/07 02:22:58;;;;;;;5.70;5.30;;;15.50;99.90;;;;;;6148758;23;20472;-79
2023/06/07 02:25:25;;;;;;;6.27;5.80;;;15.50;99.90;;;;;;6120561;23;20437;-79
2023/06/07 02:27:52;;;;;;;5.77;5.37;;;15.50;99.90;;;;;;6137752;23;20432;-78
2023/06/07 02:30:20;;;;;;;5.33;4.93;;;15.50;99.90;;;;;;6144956;23;20840;-79
2023/06/07 02:32:49;;;;;;;5.90;5.50;;;15.50;99.90;;;;;;6150029;23;20479;-79
2023/06/07 02:35:17;;;;;;;5.63;5.23;;;15.50;99.90;;;;;;6146420;23;20466;-79
2023/06/07 02:37:45;;;;;;;6.07;5.40;;;15.40;99.90;;;;;;6147052;23;20888;-78
2023/06/07 02:40:13;;;;;;;5.97;5.47;;;15.40;99.90;;;;;;6146194;23;21036;-78
2023/06/07 02:42:45;;;;;;;5.90;5.40;;;15.40;99.90;;;;;;6149801;23;20452;-78
2023/06/07 02:45:13;;;;;;;6.00;5.60;;;15.40;99.90;;;;;;6153544;23;20443;-78
2023/06/07 02:47:41;;;;;;;5.90;5.50;;;15.40;99.90;;;;;;6135929;23;20428;-79
2023/06/07 02:50:09;;;;;;;6.47;5.97;;;15.30;99.90;;;;;;6149645;23;20427;-79
2023/06/07 02:52:37;;;;;;;6.93;6.23;;;15.30;99.90;;;;;;6149414;23;20850;-78
2023/06/07 02:55:05;;;;;;;6.27;5.87;;;15.30;99.90;;;;;;6149445;23;20431;-79
2023/06/07 02:57:32;;;;;;;6.80;6.30;;;15.20;99.90;;;;;;6148330;23;20472;-78
2023/06/07 02:59:59;;;;;;;6.63;6.13;;;15.20;99.90;;;;;;6149754;23;20425;-78
2023/06/07 03:02:26;;;;;;;6.20;5.70;;;15.20;99.90;;;;;;6144906;23;20464;-78
2023/06/07 03:04:55;;;;;;;6.23;5.83;;;15.20;99.90;;;;;;6124048;23;20434;-79
2023/06/07 03:07:24;;;;;;;6.40;5.93;;;15.10;99.90;;;;;;6121533;23;20441;-90
2023/06/07 03:09:51;;;;;;;5.70;5.40;;;15.00;99.90;;;;;;6122901;23;20438;-80
2023/06/07 03:12:18;;;;;;;6.90;6.40;;;14.90;99.90;;;;;;6147726;23;20444;-81
2023/06/07 03:14:45;;;;;;;6.60;6.10;;;14.90;99.90;;;;;;6149656;23;20429;-81
2023/06/07 03:17:12;;;;;;;7.10;6.60;;;14.90;99.90;;;;;;6119529;23;20962;-80
2023/06/07 03:19:40;;;;;;;6.60;6.20;;;14.90;99.90;;;;;;6142163;23;20472;-81
2023/06/07 03:22:07;;;;;;;6.50;6.00;;;14.80;99.90;;;;;;6148490;23;20552;-81
2023/06/07 03:24:36;;;;;;;6.70;6.10;;;14.80;99.90;;;;;;6148878;23;20455;-80
2023/06/07 03:27:04;;;;;;;6.60;6.20;;;14.80;99.90;;;;;;6123274;23;20438;-80
2023/06/07 03:29:31;;;;;;;6.57;5.97;;;14.70;99.90;;;;;;6119627;23;20519;-82
2023/06/07 03:31:58;;;;;;;7.27;6.67;;;14.70;99.90;;;;;;6149553;23;20440;-81
2023/06/07 03:34:29;;;;;;;6.90;6.40;;;14.90;99.90;;;;;;6148775;23;20927;-81
2023/06/07 03:36:56;;;;;;;6.27;5.80;;;14.70;99.90;;;;;;6148645;23;20512;-81
2023/06/07 03:39:23;;;;;;;6.70;6.20;;;14.70;99.90;;;;;;6148144;23;20535;-81
2023/06/07 03:41:52;;;;;;;6.50;6.00;;;14.70;99.90;;;;;;6140529;23;20449;-81
2023/06/07 03:44:19;;;;;;;6.13;5.67;;;14.70;99.90;;;;;;6138659;23;20483;-79
2023/06/07 03:46:46;;;;;;;6.43;5.93;;;14.70;99.90;;;;;;6135640;23;20905;-81
2023/06/07 03:49:13;;;;;;;6.63;6.23;;;14.70;99.90;;;;;;6138799;23;20440;-80
2023/06/07 03:51:42;;;;;;;6.00;5.60;;;14.70;99.90;;;;;;6118745;23;20501;-81
2023/06/07 03:54:10;;;;;;;7.00;6.60;;;14.70;99.90;;;;;;6148906;23;20425;-81
2023/06/07 03:56:36;;;;;;;6.87;6.47;;;14.70;99.90;;;;;;6148840;23;20428;-82
2023/06/07 03:59:06;;;;;;;6.80;6.30;;;14.70;99.90;;;;;;6144770;23;20474;-82
2023/06/07 04:01:33;;;;;;;7.67;7.03;;;14.70;99.90;;;;;;6159255;23;20887;-81
2023/06/07 04:04:01;;;;;;;7.20;6.70;;;14.70;99.90;;;;;;6153035;23;21015;-82
2023/06/07 04:06:28;;;;;;;7.30;6.80;;;14.70;99.90;;;;;;6135022;23;20915;-82
2023/06/07 04:08:56;;;;;;;6.97;6.47;;;14.80;99.90;;;;;;6147929;23;20445;-82
2023/06/07 04:11:26;;;;;;;7.33;6.83;;;14.80;99.90;;;;;;6145218;23;20485;-82
2023/06/07 04:13:53;;;;;;;7.77;7.27;;;14.80;99.90;;;;;;6148843;23;20428;-81
2023/06/07 04:16:21;;;;;;;7.70;7.20;;;14.80;99.90;;;;;;6150493;23;20530;-81
2023/06/07 04:18:48;;;;;;;7.97;7.40;;;14.80;99.90;;;;;;6153874;23;20529;-83
2023/06/07 04:21:15;;;;;;;7.60;7.00;;;14.80;99.90;;;;;;6140514;23;20535;-81
2023/06/07 04:23:42;;;;;;;6.80;6.30;;;14.80;99.90;;;;;;6131101;23;20527;-83
2023/06/07 04:26:09;;;;;;;7.17;6.63;;;14.80;99.90;;;;;;6139268;23;20448;-87
2023/06/07 04:28:37;;;;;;;7.07;6.57;;;14.80;99.90;;;;;;6141694;23;20791;-85
2023/06/07 04:31:08;;;;;;;7.83;7.33;;;14.80;99.90;;;;;;6149752;23;20435;-88
2023/06/07 04:33:37;;;;;;;7.07;6.57;;;14.80;99.90;;;;;;6123812;23;20472;-85
2023/06/07 04:36:04;;;;;;;7.73;7.13;;;14.80;99.90;;;;;;6149935;23;20429;-85
2023/06/07 04:38:31;;;;;;;7.63;7.13;;;14.80;99.90;;;;;;6153346;23;20491;-89
2023/06/07 04:41:00;;;;;;;7.40;6.90;;;14.90;99.90;;;;;;6147701;23;20466;-85
2023/06/07 04:43:28;;;;;;;7.53;6.93;;;14.90;99.90;;;;;;6143430;23;20445;-87
2023/06/07 04:45:55;;;;;;;8.10;7.50;;;14.90;99.90;;;;;;6138132;23;20432;-79
2023/06/07 04:48:25;;;;;;;8.27;7.67;;;14.90;99.90;;;;;;6132687;23;20515;-78
2023/06/07 04:50:56;;;;;;;7.40;6.80;;;15.00;99.90;;;;;;6122887;23;20432;-77
2023/06/07 04:53:24;;;;;;;7.57;7.07;;;15.00;99.90;;;;;;6132585;23;20954;-78
2023/06/07 04:55:51;;;;;;;7.70;7.20;;;15.10;99.90;;;;;;6141603;23;20444;-80
2023/06/07 04:58:20;;;;;;;7.90;7.30;;;15.10;99.90;;;;;;6136779;23;20547;-79
2023/06/07 05:00:49;;;;;;;8.17;7.60;;;15.10;99.90;;;;;;6120850;23;21000;-80
2023/06/07 05:03:21;;;;;;;7.67;7.17;;;15.10;99.90;;;;;;6121552;23;20486;-79
2023/06/07 05:05:49;;;;;;;8.10;7.50;;;15.10;99.90;;;;;;6128851;23;20448;-81
2023/06/07 05:08:17;;;;;;;7.87;7.37;;;14.90;99.90;;;;;;6144593;23;20795;-79
2023/06/07 05:10:45;;;;;;;7.23;6.63;;;15.10;99.90;;;;;;6148239;23;20507;-82
2023/06/07 05:13:12;;;;;;;7.70;7.20;;;15.10;99.90;;;;;;6141648;23;20517;-80
2023/06/07 05:15:39;;;;;;;7.80;7.20;;;15.20;99.90;;;;;;6123441;23;20436;-72
2023/06/07 05:18:07;;;;;;;8.00;7.40;;;15.20;99.90;;;;;;6138951;23;20460;-73
2023/06/07 05:20:34;;;;;;;7.73;7.13;;;15.20;99.90;;;;;;6127118;23;20967;-79
2023/06/07 05:23:02;;;;;;;7.97;7.27;;;15.50;99.90;;;;;;6116994;23;20482;-79
2023/06/07 05:25:31;;;;;;;8.17;7.57;;;15.30;99.90;;;;;;6124334;23;20537;-81
2023/06/07 05:27:58;;;;;;;8.67;8.07;;;15.40;99.90;;;;;;6125212;23;20778;-81
2023/06/07 05:30:25;;;;;;;7.30;6.80;;;15.50;99.90;;;;;;6132505;23;20428;-80
2023/06/07 05:32:52;;;;;;;8.53;7.93;;;15.60;99.90;;;;;;6148635;23;20441;-70
2023/06/07 05:35:19;;;;;;;7.50;7.00;;;15.70;99.90;;;;;;6148750;23;20974;-80
2023/06/07 05:37:50;;;;;;;7.40;6.90;;;15.80;99.90;;;;;;6149885;23;20810;-80
2023/06/07 05:40:18;;;;;;;7.93;7.43;;;15.90;99.90;;;;;;6144288;23;20460;-79
2023/06/07 05:42:49;;;;;;;7.80;7.30;;;16.00;99.90;;;;;;6146343;23;20903;-78
2023/06/07 05:45:16;;;;;;;9.30;8.50;;;16.00;99.90;;;;;;6144311;23;20435;-78
2023/06/07 05:47:44;;;;;;;8.67;8.07;;;16.00;99.90;;;;;;6140827;23;20520;-78
2023/06/07 05:50:11;;;;;;;8.60;8.00;;;15.90;99.90;;;;;;6142039;23;20441;-79
2023/06/07 05:52:40;;;;;;;9.63;8.93;;;15.90;99.90;;;;;;6125020;23;20463;-78
2023/06/07 05:55:08;;;;;;;8.03;7.33;;;15.90;99.90;;;;;;6136701;23;20434;-78
2023/06/07 05:57:35;;;;;;;7.90;7.30;;;16.00;99.90;;;;;;6145053;23;20432;-82
2023/06/07 06:00:11;;;;;;;8.13;7.57;;;16.10;99.90;;;;;;6139420;23;20935;-79
2023/06/07 06:02:39;;;;;;;7.60;7.00;;;16.30;99.90;;;;;;6143185;23;21146;-79
2023/06/07 06:05:07;;;;;;;8.00;7.50;;;16.70;99.90;;;;;;6140701;23;20432;-79
2023/06/07 06:07:35;;;;;;;7.37;6.87;;;16.50;99.90;;;;;;6135222;23;20429;-84
2023/06/07 06:10:04;;;;;;;7.50;6.93;;;16.60;99.90;;;;;;6127391;23;20445;-84
2023/06/07 06:12:31;;;;;;;7.37;6.87;;;16.60;99.90;;;;;;6122031;23;20457;-80
2023/06/07 06:14:58;;;;;;;8.43;7.73;;;16.70;99.90;;;;;;6127322;23;20478;-80
2023/06/07 06:17:27;;;;;;;8.37;7.77;;;16.50;99.90;;;;;;6124751;23;21343;-79
2023/06/07 06:19:54;;;;;;;8.80;8.10;;;16.80;99.90;;;;;;6128821;23;20805;-79
2023/06/07 06:22:20;;;;;;;8.20;7.50;;;16.90;99.90;;;;;;6125006;23;20471;-80
2023/06/07 06:24:48;;;;;;;9.07;8.47;;;16.80;99.90;;;;;;6125544;23;20951;-79
2023/06/07 06:27:15;;;;;;;8.30;7.70;;;16.80;99.90;;;;;;6129321;23;20428;-79
2023/06/07 06:29:42;;;;;;;8.50;7.90;;;16.80;99.90;;;;;;6135118;23;20429;-79
2023/06/07 06:32:09;;;;;;;7.53;7.03;;;16.60;99.90;;;;;;6135290;23;20557;-79
2023/06/07 06:34:38;;;;;;;9.40;8.50;;;16.60;99.90;;;;;;6130730;23;20953;-79
2023/06/07 06:37:05;;;;;;;7.53;7.03;;;16.70;99.90;;;;;;6142083;23;20435;-80
2023/06/07 06:39:33;;;;;;;7.57;7.07;;;16.90;99.90;;;;;;6142334;23;20507;-80
2023/06/07 06:41:59;;;;;;;7.30;6.70;;;17.00;99.90;;;;;;6137934;23;20449;-80
2023/06/07 06:44:26;;;;;;;7.53;7.00;;;17.30;99.90;;;;;;6144727;23;20444;-78
2023/06/07 06:46:54;;;;;;;7.63;7.13;;;17.40;99.90;;;;;;6128047;23;20441;-80
2023/06/07 06:49:21;;;;;;;7.33;6.67;;;17.60;99.90;;;;;;6136150;23;20440;-82
2023/06/07 06:51:51;;;;;;;7.30;6.80;;;17.70;99.90;;;;;;6132787;23;20561;-81
2023/06/07 06:54:18;;;;;;;6.07;5.60;;;17.80;99.90;;;;;;6133206;23;20452;-82
2023/06/07 06:56:45;;;;;;;5.67;5.27;;;18.00;99.90;;;;;;6131138;23;20488;-81
2023/06/07 06:59:12;;;;;;;6.10;5.70;;;18.10;99.90;;;;;;6127519;23;20468;-81
2023/06/07 07:01:45;;;;;;;6.10;5.70;;;18.30;99.90;;;;;;6131116;23;20457;-77
2023/06/07 07:04:12;;;;;;;6.60;6.00;;;18.60;99.90;;;;;;6130503;23;20447;-88
2023/06/07 07:06:40;;;;;;;6.50;6.10;;;18.60;99.90;;;;;;6131374;23;20432;-77
2023/06/07 07:09:09;;;;;;;5.93;5.43;;;18.70;99.90;;;;;;6131972;23;20441;-77
2023/06/07 07:11:36;;;;;;;5.90;5.40;;;18.80;99.90;;;;;;6131137;23;20446;-77
2023/06/07 07:14:03;;;;;;;5.10;4.80;;;19.10;99.90;;;;;;6125948;23;20536;-77
2023/06/07 07:16:30;;;;;;;5.07;4.60;;;19.20;99.90;;;;;;6126633;23;20485;-77
2023/06/07 07:18:58;;;;;;;5.43;5.03;;;19.30;99.90;;;;;;6131732;23;20503;-77
2023/06/07 07:21:28;;;;;;;5.70;4.30;;;19.50;99.90;;;;;;6127338;23;21056;-76
2023/06/07 07:23:55;;;;;;;3.97;3.67;;;19.60;99.90;;;;;;6138973;23;20435;-74
2023/06/07 07:26:23;;;;;;;4.63;4.33;;;19.70;99.90;;;;;;6134292;23;20441;-77
2023/06/07 07:28:52;;;;;;;4.70;4.37;;;19.70;99.90;;;;;;6129553;23;20439;-77
2023/06/07 07:31:19;;;;;;;4.60;4.30;;;19.90;99.90;;;;;;6129215;23;20452;-77
2023/06/07 07:33:46;;;;;;;3.90;3.70;;;20.30;99.90;;;;;;6125820;23;20478;-77
2023/06/07 07:36:15;;;;;;;4.80;4.50;;;20.40;99.90;;;;;;6134137;23;20440;-79
2023/06/07 07:38:45;;;;;;;4.00;3.70;;;20.70;99.90;;;;;;6117877;23;20464;-75
2023/06/07 07:41:13;;;;;;;3.93;3.63;;;21.00;99.90;;;;;;6136310;23;20478;-75
2023/06/07 07:43:42;;;;;;;4.47;4.17;;;21.30;99.90;;;;;;6131341;23;20437;-75
2023/06/07 07:46:09;;;;;;;4.40;4.10;;;21.70;99.90;;;;;;6138176;23;20492;-75
2023/06/07 07:48:36;;;;;;;4.00;3.70;;;21.80;99.90;;;;;;6142618;23;20437;-75
2023/06/07 07:51:04;;;;;;;4.07;3.83;;;21.90;99.90;;;;;;6145944;23;20502;-76
2023/06/07 07:53:31;;;;;;;3.73;3.43;;;22.10;99.90;;;;;;6147396;23;20958;-76
2023/06/07 07:55:58;;;;;;;3.60;3.27;;;22.40;99.90;;;;;;6141624;23;20465;-76
2023/06/07 07:58:26;;;;;;;3.40;3.20;;;22.70;99.90;;;;;;6142736;23;20439;-76
2023/06/07 08:00:54;;;;;;;3.07;2.87;;;23.10;99.90;;;;;;6138354;23;20432;-76
2023/06/07 08:03:21;;;;;;;3.10;2.90;;;23.40;99.90;;;;;;6141533;23;20526;-76
2023/06/07 08:05:48;;;;;;;3.43;3.23;;;23.70;99.90;;;;;;6139692;23;20444;-76
2023/06/07 08:08:16;;;;;;;2.87;2.67;;;24.00;99.90;;;;;;6137837;23;20520;-76
2023/06/07 08:10:43;;;;;;;3.10;2.90;;;24.30;99.90;;;;;;6140328;23;20436;-76
2023/06/07 08:13:10;;;;;;;2.93;2.73;;;24.60;99.90;;;;;;6136718;23;20436;-76
2023/06/07 08:15:37;;;;;;;2.63;2.50;;;24.90;99.90;;;;;;6139018;23;20435;-76
2023/06/07 08:18:06;;;;;;;2.60;2.50;;;25.20;99.90;;;;;;6132679;23;20958;-76
2023/06/07 08:20:33;;;;;;;3.37;3.10;;;25.40;99.90;;;;;;6132901;23;20484;-76
2023/06/07 08:23:00;;;;;;;2.60;2.50;;;25.60;99.90;;;;;;6143202;23;20467;-77
2023/06/07 08:25:27;;;;;;;2.83;2.60;;;25.80;99.90;;;;;;6135247;23;20433;-77
2023/06/07 08:27:54;;;;;;;2.90;2.70;;;26.00;99.90;;;;;;6142673;23;20432;-77
2023/06/07 08:30:21;;;;;;;3.13;2.90;;;26.30;99.90;;;;;;6147385;23;20491;-77
2023/06/07 08:32:50;;;;;;;2.83;2.63;;;26.50;99.50;;;;;;6140324;23;20455;-80
2023/06/07 08:35:18;;;;;;;2.20;2.10;;;26.20;98.90;;;;;;6123231;23;20460;-79
2023/06/07 08:37:45;;;;;;;3.37;3.17;;;26.00;99.20;;;;;;6121411;23;20495;-79
2023/06/07 08:40:13;;;;;;;3.13;2.97;;;25.90;99.40;;;;;;6120948;23;20975;-79
2023/06/07 08:42:40;;;;;;;3.47;3.23;;;25.80;99.90;;;;;;6125857;23;20547;-80
2023/06/07 08:45:08;;;;;;;3.57;3.27;;;26.00;99.70;;;;;;6121306;23;20447;-78
2023/06/07 08:47:36;;;;;;;2.70;2.50;;;26.00;99.30;;;;;;6111522;23;20436;-78
2023/06/07 08:50:04;;;;;;;2.40;2.20;;;25.90;99.70;;;;;;6120648;23;20928;-78
2023/06/07 08:52:35;;;;;;;2.70;2.50;;;26.10;99.50;;;;;;6121022;23;20980;-79
2023/06/07 08:55:07;;;;;;;2.90;2.60;;;26.40;99.40;;;;;;6123540;23;20448;-78
2023/06/07 08:57:35;;;;;;;2.60;2.40;;;26.80;98.80;;;;;;6124291;23;20533;-79
2023/06/07 09:00:06;;;;;;;2.80;2.30;;;27.20;97.90;;;;;;6116807;23;20587;-81
2023/06/07 09:02:34;;;;;;;2.30;2.10;;;27.60;97.20;;;;;;6119342;23;20560;-81
2023/06/07 09:05:05;;;;;;;3.60;2.30;;;28.00;95.90;;;;;;6118066;23;20448;-79
2023/06/07 09:07:35;;;;;;;2.47;2.37;;;28.30;95.40;;;;;;6113490;23;20434;-79
2023/06/07 09:10:07;;;;;;;2.43;2.20;;;28.50;94.70;;;;;;6112806;23;20507;-79
2023/06/07 09:12:33;;;;;;;2.27;2.17;;;28.50;93.90;;;;;;6118210;23;20454;-79
2023/06/07 09:15:01;;;;;;;2.10;2.00;;;28.10;93.70;;;;;;6119669;23;20794;-79
2023/06/07 09:17:52;;;;;;;2.83;2.53;;;27.70;93.60;;;;;;6136355;23;20995;-79
2023/06/07 09:20:20;;;;;;;2.17;2.07;;;27.50;93.80;;;;;;6131788;23;20465;-80
2023/06/07 09:22:59;;;;;;;2.30;2.20;;;27.50;94.10;;;;;;6130340;23;20460;-80
2023/06/07 09:25:26;;;;;;;2.80;2.47;;;27.70;94.00;;;;;;6129962;23;20459;-78
2023/06/07 09:27:54;;;;;;;3.20;2.27;;;27.90;92.80;;;;;;6129879;23;20520;-80
2023/06/07 09:30:21;;;;;;;1.80;1.70;;;27.50;94.00;;;;;;6128002;23;20528;-79
2023/06/07 09:32:49;;;;;;;2.50;2.30;;;27.60;93.90;;;;;;6131515;23;21145;-78
2023/06/07 09:35:17;;;;;;;1.73;1.63;;;28.00;93.10;;;;;;6129513;23;20456;-79
2023/06/07 09:37:46;;;;;;;2.30;1.80;;;28.10;92.20;;;;;;6138111;23;20517;-78
2023/06/07 09:40:16;;;;;;;1.80;1.70;;;28.50;91.60;;;;;;6129153;23;20825;-77
2023/06/07 09:42:44;;;;;;;2.23;2.03;;;28.80;91.60;;;;;;6134531;23;20506;-78
2023/06/07 09:45:13;;;;;;;2.23;1.80;;;29.20;91.50;;;;;;6128496;23;20437;-78
2023/06/07 09:47:41;;;;;;;2.30;1.80;;;29.50;90.70;;;;;;6128308;23;20796;-75
2023/06/07 09:50:10;;;;;;;2.10;1.90;;;29.80;90.00;;;;;;6134154;23;20443;-78
2023/06/07 09:52:37;;;;;;;1.90;1.80;;;29.90;89.10;;;;;;6135103;23;20458;-78
2023/06/07 09:55:06;;;;;;;2.30;2.10;;;29.80;88.90;;;;;;6138434;23;20435;-79
2023/06/07 09:57:36;;;;;;;1.93;1.83;;;29.70;87.90;;;;;;6145251;23;20432;-79
2023/06/07 10:00:10;;;;;;;2.10;2.00;;;29.70;87.80;;;;;;6139583;23;20472;-79
2023/06/07 10:02:37;;;;;;;2.30;1.70;;;29.90;87.40;;;;;;6139322;23;20453;-79
2023/06/07 10:05:04;;;;;;;2.17;1.97;;;30.10;84.70;;;;;;6137189;23;20439;-78
2023/06/07 10:07:35;;;;;;;1.73;1.63;;;30.30;84.20;;;;;;6137460;23;20436;-80
2023/06/07 10:10:03;;;;;;;2.20;2.10;;;30.50;84.30;;;;;;6138847;23;20796;-79
2023/06/07 10:12:35;;;;;;;2.20;1.93;;;30.80;81.60;;;;;;6137660;23;20551;-79
2023/06/07 10:15:07;;;;;;;2.30;1.90;;;30.90;82.50;;;;;;6134567;23;20502;-80
2023/06/07 10:17:42;;;;;;;2.30;2.20;;;31.10;81.80;;;;;;6137630;23;20437;-80
2023/06/07 10:20:13;;;;;;;2.10;2.00;;;31.00;81.50;;;;;;6130515;23;20464;-78
2023/06/07 10:22:44;;;;;;;2.00;1.90;;;30.60;81.20;;;;;;6133458;23;20528;-78
2023/06/07 10:25:15;;;;;;;2.10;2.00;;;30.00;81.40;;;;;;6133393;23;20855;-79
2023/06/07 10:27:51;;;;;;;2.30;2.20;;;29.50;82.80;;;;;;6130181;23;20437;-82
2023/06/07 10:30:22;;;;;;;2.07;1.97;;;28.90;83.00;;;;;;6136356;23;20440;-79
2023/06/07 10:32:52;;;;;;;2.40;2.20;;;28.30;84.40;;;;;;6139599;23;20456;-79
2023/06/07 10:35:20;;;;;;;2.53;2.33;;;27.80;85.80;;;;;;6125899;23;20429;-77
2023/06/07 10:37:53;;;;;;;2.30;2.10;;;27.50;86.90;;;;;;6128730;23;21007;-78
2023/06/07 10:40:22;;;;;;;2.23;2.13;;;27.40;88.40;;;;;;6127021;23;21001;-79
2023/06/07 10:42:50;;;;;;;2.07;1.97;;;27.90;88.70;;;;;;6130551;23;20977;-81
2023/06/07 10:45:20;;;;;;;2.17;1.90;;;28.20;86.50;;;;;;6133116;23;20439;-78
2023/06/07 10:47:48;;;;;;;1.83;1.73;;;28.30;86.30;;;;;;6140437;23;20433;-80
2023/06/07 10:50:45;;;;;;;1.87;1.77;;;28.20;86.10;;;;;;6144564;23;20428;-79
2023/06/07 10:53:12;;;;;;;2.07;1.97;;;28.10;86.30;;;;;;6100638;23;20439;-79
2023/06/07 10:55:40;;;;;;;1.93;1.60;;;28.10;86.20;;;;;;6138266;23;20436;-79
2023/06/07 10:58:27;;;;;;;2.10;1.93;;;28.50;85.10;;;;;;6139259;23;20456;-79
2023/06/07 11:00:56;;;;;;;1.97;1.73;;;29.10;84.30;;;;;;6140279;23;20479;-79
2023/06/07 11:03:43;;;;;;;1.90;1.80;;;29.70;83.40;;;;;;6133233;23;20428;-80
2023/06/07 11:06:11;;;;;;;2.17;2.07;;;30.40;80.80;;;;;;6135082;23;20434;-80
2023/06/07 11:08:39;;;;;;;1.50;1.40;;;30.60;79.90;;;;;;6131192;23;20841;-80
2023/06/07 11:11:51;;;;;;;2.30;2.20;;;30.90;78.60;;;;;;6141913;23;20499;-80
2023/06/07 11:14:18;;;;;;;2.00;1.83;;;31.30;76.80;;;;;;6134812;23;20535;-80
2023/06/07 11:16:47;;;;;;;2.60;2.40;;;31.40;77.20;;;;;;6143301;23;20504;-80
2023/06/07 11:19:16;;;;;;;2.30;2.17;;;31.20;76.90;;;;;;6142904;23;20464;-81
2023/06/07 11:22:04;;;;;;;2.13;2.03;;;30.90;77.40;;;;;;6139181;23;20465;-79
2023/06/07 11:24:32;;;;;;;2.07;1.90;;;30.20;77.70;;;;;;6138785;23;20432;-81
2023/06/07 11:27:00;;;;;;;2.20;2.10;;;29.80;78.70;;;;;;6130485;23;20445;-82
2023/06/07 11:29:28;;;;;;;2.10;2.00;;;29.40;79.80;;;;;;6130246;23;20987;-87
2023/06/07 11:32:02;;;;;;;1.83;1.73;;;29.50;80.30;;;;;;6139577;23;20455;-85
2023/06/07 11:34:31;;;;;;;2.80;2.33;;;29.80;79.40;;;;;;6140355;23;20440;-69
2023/06/07 11:37:08;;;;;;;2.27;2.10;;;30.20;78.70;;;;;;6143268;23;20825;-91
2023/06/07 11:39:36;;;;;;;2.23;2.13;;;30.50;76.80;;;;;;6136995;23;21009;-91
2023/06/07 11:42:03;;;;;;;2.10;2.00;;;30.70;76.00;;;;;;6139960;23;20463;-93
2023/06/07 11:44:30;;;;;;;2.30;2.10;;;30.40;76.70;;;;;;6150241;23;20432;-92
2023/06/07 11:46:59;;;;;;;1.90;1.80;;;30.40;76.60;;;;;;6143750;23;20463;-92
2023/06/07 11:49:28;;;;;;;1.70;1.60;;;30.50;74.70;;;;;;6147497;23;20541;-92
2023/06/07 11:51:58;;;;;;;1.73;1.63;;;30.50;74.80;;;;;;6143704;23;20460;-91
2023/06/07 11:54:25;;;;;;;2.23;2.13;;;30.40;74.40;;;;;;6138130;23;20514;-89
2023/06/07 11:56:53;;;;;;;2.47;2.27;;;30.00;74.80;;;;;;6143637;23;20454;-86
2023/06/07 11:59:20;;;;;;;2.80;2.20;;;29.70;75.00;;;;;;6148204;23;20428;-92
2023/06/07 12:01:53;;;;;;;10.67;3.03;;;28.90;75.30;;;;;;6140896;23;20476;-92
2023/06/07 12:04:22;;;;;;;2.20;2.10;;;28.30;77.30;;;;;;6144905;23;20432;-92
2023/06/07 12:06:52;;;;;;;2.13;1.80;;;28.50;76.70;;;;;;6137349;23;20476;-93
2023/06/07 12:09:19;;;;;;;2.07;1.90;;;29.00;75.60;;;;;;6144379;23;20511;-93
2023/06/07 12:11:49;;;;;;;2.07;1.87;;;29.10;76.20;;;;;;6136786;23;20449;-93
2023/06/07 12:14:33;;;;;;;4.83;2.10;;;29.00;76.20;;;;;;6139986;23;20532;-93
2023/06/07 12:17:01;;;;;;;2.90;2.10;;;28.80;77.20;;;;;;6137989;23;20432;-92
2023/06/07 12:19:28;;;;;;;2.03;1.90;;;28.90;76.90;;;;;;6141492;23;20433;-93
2023/06/07 12:22:06;;;;;;;2.17;1.70;;;28.80;75.70;;;;;;6153916;23;20460;-94
2023/06/07 12:24:38;;;;;;;2.60;2.10;;;28.60;76.00;;;;;;6159733;23;20437;-93
2023/06/07 12:27:06;;;;;;;4.33;2.30;;;28.50;77.40;;;;;;6161838;23;20428;-93
2023/06/07 12:29:33;;;;;;;6.10;1.90;;;28.70;77.60;;;;;;6158337;23;20463;-82
2023/06/07 12:32:02;;;;;;;4.67;2.20;;;29.20;77.00;;;;;;6153129;23;20463;-91
2023/06/07 12:34:30;;;;;;;11.63;2.97;;;29.80;75.80;;;;;;6150705;23;20429;-87
2023/06/07 12:37:00;;;;;;;4.00;2.30;;;30.20;74.40;;;;;;6135965;23;20436;-89
2023/06/07 12:39:31;;;;;;;1.80;1.70;;;30.40;74.40;;;;;;6140128;23;20433;-94
2023/06/07 12:41:59;;;;;;;5.17;2.00;;;30.50;72.20;;;;;;6152450;23;20540;-94
2023/06/07 12:44:26;;;;;;;3.80;1.90;;;30.80;71.20;;;;;;6152311;23;20857;-94
2023/06/07 12:46:54;;;;;;;1.77;1.63;;;31.30;69.90;;;;;;6147593;23;20429;-94
2023/06/07 12:49:22;;;;;;;5.47;2.00;;;31.50;68.40;;;;;;6150553;23;20511;-95
2023/06/07 12:51:49;;;;;;;3.90;1.90;;;31.40;68.10;;;;;;6145014;23;20464;-94
2023/06/07 12:54:16;;;;;;;3.10;1.73;;;31.70;69.10;;;;;;6148139;23;21727;-94
2023/06/07 12:56:45;;;;;;;2.03;1.77;;;32.10;67.50;;;;;;6148440;23;20441;-94